sensor_id;sensor_type;location;lat;lon;timestamp;P1;durP1;ratioP1;P2;durP2;ratioP2
35847;SDS011;22332;51.954;20.118;2023-02-28T00:00:54;88.20;;;35.60;;
35847;SDS011;22332;51.954;20.118;2023-02-28T00:03:59;76.70;;;33.30;;
35847;SDS011;22332;51.954;20.118;2023-02-28T00:07:05;83.90;;;34.00;;
35847;SDS011;22332;51.954;20.118;2023-02-28T00:10:12;82.20;;;34.70;;
35847;SDS011;22332;51.954;20.118;2023-02-28T00:13:23;82.40;;;34.50;;
35847;SDS011;22332;51.954;20.118;2023-02-28T00:16:29;105.20;;;44.90;;
35847;SDS011;22332;51.954;20.118;2023-02-28T00:19:34;110.70;;;49.60;;
35847;SDS011;22332;51.954;20.118;2023-02-28T00:22:40;91.70;;;39.30;;
35847;SDS011;22332;51.954;20.118;2023-02-28T00:25:47;89.80;;;38.10;;
35847;SDS011;22332;51.954;20.118;2023-02-28T00:28:52;85.40;;;34.70;;
35847;SDS011;22332;51.954;20.118;2023-02-28T00:31:59;100.80;;;37.20;;
35847;SDS011;22332;51.954;20.118;2023-02-28T00:35:05;95.60;;;34.50;;
35847;SDS011;22332;51.954;20.118;2023-02-28T00:38:12;80.30;;;31.20;;
35847;SDS011;22332;51.954;20.118;2023-02-28T00:41:18;95.40;;;35.50;;
35847;SDS011;22332;51.954;20.118;2023-02-28T00:44:24;104.00;;;37.40;;
35847;SDS011;22332;51.954;20.118;2023-02-28T00:47:29;107.10;;;38.70;;
35847;SDS011;22332;51.954;20.118;2023-02-28T00:50:35;85.30;;;32.90;;
35847;SDS011;22332;51.954;20.118;2023-02-28T00:53:41;79.40;;;33.50;;
35847;SDS011;22332;51.954;20.118;2023-02-28T00:56:46;80.00;;;31.90;;
35847;SDS011;22332;51.954;20.118;2023-02-28T00:59:53;71.90;;;28.80;;
35847;SDS011;22332;51.954;20.118;2023-02-28T01:02:58;67.40;;;29.10;;
35847;SDS011;22332;51.954;20.118;2023-02-28T01:06:04;89.00;;;33.30;;
35847;SDS011;22332;51.954;20.118;2023-02-28T01:09:10;87.10;;;33.30;;
35847;SDS011;22332;51.954;20.118;2023-02-28T01:12:18;77.60;;;30.50;;
35847;SDS011;22332;51.954;20.118;2023-02-28T01:15:24;67.60;;;28.30;;
35847;SDS011;22332;51.954;20.118;2023-02-28T01:18:29;62.60;;;27.50;;
35847;SDS011;22332;51.954;20.118;2023-02-28T01:21:35;63.40;;;26.10;;
35847;SDS011;22332;51.954;20.118;2023-02-28T01:24:42;55.30;;;24.10;;
35847;SDS011;22332;51.954;20.118;2023-02-28T01:27:49;57.20;;;23.60;;
35847;SDS011;22332;51.954;20.118;2023-02-28T01:30:55;57.80;;;24.50;;
35847;SDS011;22332;51.954;20.118;2023-02-28T01:34:02;113.60;;;43.50;;
35847;SDS011;22332;51.954;20.118;2023-02-28T01:37:07;83.60;;;33.30;;
35847;SDS011;22332;51.954;20.118;2023-02-28T01:40:14;72.60;;;28.90;;
35847;SDS011;22332;51.954;20.118;2023-02-28T01:43:23;63.90;;;28.80;;
35847;SDS011;22332;51.954;20.118;2023-02-28T01:46:32;68.60;;;27.80;;
35847;SDS011;22332;51.954;20.118;2023-02-28T01:49:39;60.80;;;27.60;;
35847;SDS011;22332;51.954;20.118;2023-02-28T01:52:45;69.40;;;29.20;;
35847;SDS011;22332;51.954;20.118;2023-02-28T01:55:52;74.80;;;29.40;;
35847;SDS011;22332;51.954;20.118;2023-02-28T01:58:59;66.90;;;29.10;;
35847;SDS011;22332;51.954;20.118;2023-02-28T02:02:05;75.60;;;30.60;;
35847;SDS011;22332;51.954;20.118;2023-02-28T02:05:12;111.30;;;38.10;;
35847;SDS011;22332;51.954;20.118;2023-02-28T02:08:21;114.40;;;38.40;;
35847;SDS011;22332;51.954;20.118;2023-02-28T02:11:29;101.10;;;35.50;;
35847;SDS011;22332;51.954;20.118;2023-02-28T02:14:42;86.30;;;32.10;;
35847;SDS011;22332;51.954;20.118;2023-02-28T02:17:57;69.40;;;28.30;;
35847;SDS011;22332;51.954;20.118;2023-02-28T02:21:24;69.70;;;27.90;;
35847;SDS011;22332;51.954;20.118;2023-02-28T02:24:51;63.10;;;27.90;;
35847;SDS011;22332;51.954;20.118;2023-02-28T02:28:33;69.70;;;27.00;;
35847;SDS011;22332;51.954;20.118;2023-02-28T02:31:57;62.80;;;27.80;;
35847;SDS011;22332;51.954;20.118;2023-02-28T02:35:19;71.10;;;28.80;;
35847;SDS011;22332;51.954;20.118;2023-02-28T02:38:35;57.10;;;25.20;;
35847;SDS011;22332;51.954;20.118;2023-02-28T02:41:47;51.70;;;22.40;;
35847;SDS011;22332;51.954;20.118;2023-02-28T02:44:58;49.50;;;22.30;;
35847;SDS011;22332;51.954;20.118;2023-02-28T02:48:11;43.60;;;19.90;;
35847;SDS011;22332;51.954;20.118;2023-02-28T02:51:20;46.60;;;21.00;;
35847;SDS011;22332;51.954;20.118;2023-02-28T02:54:28;47.40;;;20.80;;
35847;SDS011;22332;51.954;20.118;2023-02-28T02:57:38;42.30;;;20.40;;
35847;SDS011;22332;51.954;20.118;2023-02-28T03:00:50;55.00;;;22.50;;
35847;SDS011;22332;51.954;20.118;2023-02-28T03:04:01;46.50;;;22.10;;
35847;SDS011;22332;51.954;20.118;2023-02-28T03:07:09;45.00;;;21.10;;
35847;SDS011;22332;51.954;20.118;2023-02-28T03:10:33;48.70;;;21.20;;
35847;SDS011;22332;51.954;20.118;2023-02-28T03:13:45;46.30;;;20.60;;
35847;SDS011;22332;51.954;20.118;2023-02-28T03:17:20;47.80;;;21.00;;
35847;SDS011;22332;51.954;20.118;2023-02-28T03:20:37;44.20;;;19.50;;
35847;SDS011;22332;51.954;20.118;2023-02-28T03:23:51;52.30;;;20.80;;
35847;SDS011;22332;51.954;20.118;2023-02-28T03:27:06;52.70;;;22.00;;
35847;SDS011;22332;51.954;20.118;2023-02-28T03:30:17;52.10;;;21.50;;
35847;SDS011;22332;51.954;20.118;2023-02-28T03:33:28;48.50;;;21.00;;
35847;SDS011;22332;51.954;20.118;2023-02-28T03:36:38;48.70;;;20.70;;
35847;SDS011;22332;51.954;20.118;2023-02-28T03:39:49;46.20;;;21.30;;
35847;SDS011;22332;51.954;20.118;2023-02-28T03:43:02;48.60;;;20.50;;
35847;SDS011;22332;51.954;20.118;2023-02-28T03:46:16;45.60;;;20.60;;
35847;SDS011;22332;51.954;20.118;2023-02-28T03:49:28;48.30;;;21.70;;
35847;SDS011;22332;51.954;20.118;2023-02-28T03:52:38;47.50;;;21.20;;
35847;SDS011;22332;51.954;20.118;2023-02-28T03:55:48;60.70;;;27.80;;
35847;SDS011;22332;51.954;20.118;2023-02-28T03:58:58;63.00;;;27.30;;
35847;SDS011;22332;51.954;20.118;2023-02-28T04:02:08;65.90;;;27.20;;
35847;SDS011;22332;51.954;20.118;2023-02-28T04:05:14;69.20;;;30.90;;
35847;SDS011;22332;51.954;20.118;2023-02-28T04:08:20;72.00;;;31.60;;
35847;SDS011;22332;51.954;20.118;2023-02-28T04:11:27;64.40;;;28.60;;
35847;SDS011;22332;51.954;20.118;2023-02-28T04:14:37;48.90;;;20.50;;
35847;SDS011;22332;51.954;20.118;2023-02-28T04:17:42;56.40;;;24.90;;
35847;SDS011;22332;51.954;20.118;2023-02-28T04:20:48;58.10;;;26.60;;
35847;SDS011;22332;51.954;20.118;2023-02-28T04:23:54;58.60;;;26.40;;
35847;SDS011;22332;51.954;20.118;2023-02-28T04:27:03;54.60;;;25.40;;
35847;SDS011;22332;51.954;20.118;2023-02-28T04:30:10;50.60;;;22.60;;
35847;SDS011;22332;51.954;20.118;2023-02-28T04:33:16;51.00;;;23.40;;
35847;SDS011;22332;51.954;20.118;2023-02-28T04:36:21;50.60;;;21.90;;
35847;SDS011;22332;51.954;20.118;2023-02-28T04:39:27;51.00;;;21.00;;
35847;SDS011;22332;51.954;20.118;2023-02-28T04:42:33;48.50;;;22.00;;
35847;SDS011;22332;51.954;20.118;2023-02-28T04:45:38;54.40;;;22.10;;
35847;SDS011;22332;51.954;20.118;2023-02-28T04:48:44;49.50;;;21.80;;
35847;SDS011;22332;51.954;20.118;2023-02-28T04:51:50;52.40;;;21.60;;
35847;SDS011;22332;51.954;20.118;2023-02-28T04:54:56;53.40;;;22.20;;
35847;SDS011;22332;51.954;20.118;2023-02-28T04:58:02;50.60;;;23.30;;
35847;SDS011;22332;51.954;20.118;2023-02-28T05:01:14;49.30;;;22.20;;
35847;SDS011;22332;51.954;20.118;2023-02-28T05:04:23;51.80;;;22.40;;
35847;SDS011;22332;51.954;20.118;2023-02-28T05:07:28;49.30;;;22.40;;
35847;SDS011;22332;51.954;20.118;2023-02-28T05:10:34;49.50;;;22.70;;
35847;SDS011;22332;51.954;20.118;2023-02-28T05:13:39;48.90;;;22.10;;
35847;SDS011;22332;51.954;20.118;2023-02-28T05:16:45;50.50;;;21.80;;
35847;SDS011;22332;51.954;20.118;2023-02-28T05:19:51;50.10;;;22.70;;
35847;SDS011;22332;51.954;20.118;2023-02-28T05:22:56;54.30;;;23.30;;
35847;SDS011;22332;51.954;20.118;2023-02-28T05:26:04;52.90;;;22.30;;
35847;SDS011;22332;51.954;20.118;2023-02-28T05:29:09;46.20;;;20.90;;
35847;SDS011;22332;51.954;20.118;2023-02-28T05:32:15;44.90;;;20.50;;
35847;SDS011;22332;51.954;20.118;2023-02-28T05:35:21;47.40;;;22.00;;
35847;SDS011;22332;51.954;20.118;2023-02-28T05:38:27;51.50;;;23.20;;
35847;SDS011;22332;51.954;20.118;2023-02-28T05:41:32;48.00;;;21.90;;
35847;SDS011;22332;51.954;20.118;2023-02-28T05:44:38;51.50;;;22.30;;
35847;SDS011;22332;51.954;20.118;2023-02-28T05:47:44;51.30;;;21.80;;
35847;SDS011;22332;51.954;20.118;2023-02-28T05:50:50;50.20;;;22.20;;
35847;SDS011;22332;51.954;20.118;2023-02-28T05:53:57;46.90;;;24.00;;
35847;SDS011;22332;51.954;20.118;2023-02-28T05:57:04;53.20;;;24.00;;
35847;SDS011;22332;51.954;20.118;2023-02-28T06:00:11;52.20;;;24.00;;
35847;SDS011;22332;51.954;20.118;2023-02-28T06:03:20;51.20;;;23.60;;
35847;SDS011;22332;51.954;20.118;2023-02-28T06:06:26;59.30;;;24.60;;
35847;SDS011;22332;51.954;20.118;2023-02-28T06:09:32;57.30;;;26.00;;
35847;SDS011;22332;51.954;20.118;2023-02-28T06:12:37;66.30;;;26.70;;
35847;SDS011;22332;51.954;20.118;2023-02-28T06:15:44;63.80;;;27.50;;
35847;SDS011;22332;51.954;20.118;2023-02-28T06:18:49;61.10;;;28.00;;
35847;SDS011;22332;51.954;20.118;2023-02-28T06:21:58;57.10;;;25.50;;
35847;SDS011;22332;51.954;20.118;2023-02-28T06:25:04;57.50;;;27.20;;
35847;SDS011;22332;51.954;20.118;2023-02-28T06:28:10;70.80;;;28.80;;
35847;SDS011;22332;51.954;20.118;2023-02-28T06:31:16;78.30;;;33.30;;
35847;SDS011;22332;51.954;20.118;2023-02-28T06:34:23;92.90;;;37.60;;
35847;SDS011;22332;51.954;20.118;2023-02-28T06:37:28;84.10;;;34.50;;
35847;SDS011;22332;51.954;20.118;2023-02-28T06:40:36;74.90;;;32.50;;
35847;SDS011;22332;51.954;20.118;2023-02-28T06:43:41;74.30;;;32.60;;
35847;SDS011;22332;51.954;20.118;2023-02-28T06:46:48;77.10;;;33.00;;
35847;SDS011;22332;51.954;20.118;2023-02-28T06:49:53;111.30;;;47.80;;
35847;SDS011;22332;51.954;20.118;2023-02-28T06:52:59;108.70;;;44.90;;
35847;SDS011;22332;51.954;20.118;2023-02-28T06:56:05;96.70;;;40.30;;
35847;SDS011;22332;51.954;20.118;2023-02-28T06:59:13;91.90;;;39.70;;
35847;SDS011;22332;51.954;20.118;2023-02-28T07:02:18;95.20;;;38.00;;
35847;SDS011;22332;51.954;20.118;2023-02-28T07:05:24;91.00;;;38.90;;
35847;SDS011;22332;51.954;20.118;2023-02-28T07:08:29;82.70;;;35.60;;
35847;SDS011;22332;51.954;20.118;2023-02-28T07:11:35;84.50;;;34.30;;
35847;SDS011;22332;51.954;20.118;2023-02-28T07:14:41;80.80;;;36.40;;
35847;SDS011;22332;51.954;20.118;2023-02-28T07:17:46;73.20;;;33.80;;
35847;SDS011;22332;51.954;20.118;2023-02-28T07:20:52;83.20;;;34.30;;
35847;SDS011;22332;51.954;20.118;2023-02-28T07:23:57;81.90;;;31.70;;
35847;SDS011;22332;51.954;20.118;2023-02-28T07:27:03;83.80;;;33.70;;
35847;SDS011;22332;51.954;20.118;2023-02-28T07:30:10;85.60;;;33.60;;
35847;SDS011;22332;51.954;20.118;2023-02-28T07:33:16;77.40;;;33.70;;
35847;SDS011;22332;51.954;20.118;2023-02-28T07:36:22;69.80;;;30.40;;
35847;SDS011;22332;51.954;20.118;2023-02-28T07:39:27;53.30;;;23.80;;
35847;SDS011;22332;51.954;20.118;2023-02-28T07:42:33;43.70;;;22.30;;
35847;SDS011;22332;51.954;20.118;2023-02-28T07:45:40;49.40;;;23.30;;
35847;SDS011;22332;51.954;20.118;2023-02-28T07:48:46;54.20;;;25.40;;
35847;SDS011;22332;51.954;20.118;2023-02-28T07:51:51;50.50;;;24.00;;
35847;SDS011;22332;51.954;20.118;2023-02-28T07:54:57;54.90;;;24.50;;
35847;SDS011;22332;51.954;20.118;2023-02-28T07:58:02;62.20;;;30.40;;
35847;SDS011;22332;51.954;20.118;2023-02-28T08:01:09;52.20;;;27.00;;
35847;SDS011;22332;51.954;20.118;2023-02-28T08:04:15;43.30;;;21.40;;
35847;SDS011;22332;51.954;20.118;2023-02-28T08:07:20;42.90;;;21.40;;
35847;SDS011;22332;51.954;20.118;2023-02-28T08:10:26;41.20;;;20.60;;
35847;SDS011;22332;51.954;20.118;2023-02-28T08:13:31;31.90;;;16.80;;
35847;SDS011;22332;51.954;20.118;2023-02-28T08:16:37;30.90;;;16.50;;
35847;SDS011;22332;51.954;20.118;2023-02-28T08:19:44;18.20;;;10.00;;
35847;SDS011;22332;51.954;20.118;2023-02-28T08:22:50;15.00;;;9.10;;
35847;SDS011;22332;51.954;20.118;2023-02-28T08:25:56;17.50;;;9.70;;
35847;SDS011;22332;51.954;20.118;2023-02-28T08:29:01;14.10;;;8.60;;
35847;SDS011;22332;51.954;20.118;2023-02-28T08:32:07;15.60;;;8.50;;
35847;SDS011;22332;51.954;20.118;2023-02-28T08:35:12;13.60;;;8.40;;
35847;SDS011;22332;51.954;20.118;2023-02-28T08:38:18;13.70;;;7.90;;
35847;SDS011;22332;51.954;20.118;2023-02-28T08:41:24;14.70;;;8.30;;
35847;SDS011;22332;51.954;20.118;2023-02-28T08:44:29;13.40;;;7.50;;
35847;SDS011;22332;51.954;20.118;2023-02-28T08:47:35;12.60;;;8.40;;
35847;SDS011;22332;51.954;20.118;2023-02-28T08:50:41;17.20;;;10.10;;
35847;SDS011;22332;51.954;20.118;2023-02-28T08:53:46;16.90;;;9.70;;
35847;SDS011;22332;51.954;20.118;2023-02-28T08:56:52;13.70;;;8.70;;
35847;SDS011;22332;51.954;20.118;2023-02-28T08:59:58;14.10;;;8.90;;
35847;SDS011;22332;51.954;20.118;2023-02-28T09:03:06;15.60;;;9.30;;
35847;SDS011;22332;51.954;20.118;2023-02-28T09:06:12;14.20;;;8.80;;
35847;SDS011;22332;51.954;20.118;2023-02-28T09:09:19;19.40;;;9.90;;
35847;SDS011;22332;51.954;20.118;2023-02-28T09:12:25;16.80;;;9.10;;
35847;SDS011;22332;51.954;20.118;2023-02-28T09:15:36;12.90;;;8.10;;
35847;SDS011;22332;51.954;20.118;2023-02-28T09:18:42;15.20;;;9.50;;
35847;SDS011;22332;51.954;20.118;2023-02-28T09:21:48;18.00;;;10.50;;
35847;SDS011;22332;51.954;20.118;2023-02-28T09:24:55;12.30;;;7.90;;
35847;SDS011;22332;51.954;20.118;2023-02-28T09:28:00;10.60;;;7.00;;
35847;SDS011;22332;51.954;20.118;2023-02-28T09:31:10;11.60;;;7.10;;
35847;SDS011;22332;51.954;20.118;2023-02-28T09:34:17;16.70;;;10.10;;
35847;SDS011;22332;51.954;20.118;2023-02-28T09:37:23;11.70;;;6.90;;
35847;SDS011;22332;51.954;20.118;2023-02-28T09:40:32;10.10;;;6.70;;
35847;SDS011;22332;51.954;20.118;2023-02-28T09:43:43;14.30;;;7.90;;
35847;SDS011;22332;51.954;20.118;2023-02-28T09:46:53;13.70;;;8.40;;
35847;SDS011;22332;51.954;20.118;2023-02-28T09:50:03;19.00;;;11.20;;
35847;SDS011;22332;51.954;20.118;2023-02-28T09:53:22;14.80;;;8.90;;
35847;SDS011;22332;51.954;20.118;2023-02-28T09:56:34;12.30;;;7.30;;
35847;SDS011;22332;51.954;20.118;2023-02-28T09:59:48;10.80;;;6.90;;
35847;SDS011;22332;51.954;20.118;2023-02-28T10:03:25;11.90;;;7.50;;
35847;SDS011;22332;51.954;20.118;2023-02-28T10:06:38;14.70;;;8.10;;
35847;SDS011;22332;51.954;20.118;2023-02-28T10:09:51;10.70;;;6.80;;
35847;SDS011;22332;51.954;20.118;2023-02-28T10:13:02;11.10;;;7.20;;
35847;SDS011;22332;51.954;20.118;2023-02-28T10:16:12;10.50;;;6.80;;
35847;SDS011;22332;51.954;20.118;2023-02-28T10:19:23;11.70;;;7.70;;
35847;SDS011;22332;51.954;20.118;2023-02-28T10:22:37;16.20;;;9.80;;
35847;SDS011;22332;51.954;20.118;2023-02-28T10:26:01;10.40;;;6.90;;
35847;SDS011;22332;51.954;20.118;2023-02-28T10:29:14;11.20;;;7.80;;
35847;SDS011;22332;51.954;20.118;2023-02-28T10:32:21;12.70;;;8.00;;
35847;SDS011;22332;51.954;20.118;2023-02-28T10:35:30;13.90;;;8.60;;
35847;SDS011;22332;51.954;20.118;2023-02-28T10:38:37;11.60;;;8.30;;
35847;SDS011;22332;51.954;20.118;2023-02-28T10:41:44;12.20;;;8.60;;
35847;SDS011;22332;51.954;20.118;2023-02-28T10:44:49;12.00;;;8.30;;
35847;SDS011;22332;51.954;20.118;2023-02-28T10:48:26;14.90;;;9.80;;
35847;SDS011;22332;51.954;20.118;2023-02-28T10:51:37;14.20;;;9.00;;
35847;SDS011;22332;51.954;20.118;2023-02-28T10:54:44;15.50;;;10.60;;
35847;SDS011;22332;51.954;20.118;2023-02-28T10:57:49;17.00;;;10.00;;
35847;SDS011;22332;51.954;20.118;2023-02-28T11:00:56;18.00;;;10.60;;
35847;SDS011;22332;51.954;20.118;2023-02-28T11:04:02;18.00;;;11.30;;
35847;SDS011;22332;51.954;20.118;2023-02-28T11:07:20;16.80;;;10.00;;
35847;SDS011;22332;51.954;20.118;2023-02-28T11:10:28;16.60;;;10.30;;
35847;SDS011;22332;51.954;20.118;2023-02-28T11:13:37;17.10;;;10.40;;
35847;SDS011;22332;51.954;20.118;2023-02-28T11:16:44;16.10;;;10.00;;
35847;SDS011;22332;51.954;20.118;2023-02-28T11:19:51;15.90;;;9.80;;
35847;SDS011;22332;51.954;20.118;2023-02-28T11:23:02;14.90;;;9.80;;
35847;SDS011;22332;51.954;20.118;2023-02-28T11:26:09;15.70;;;10.00;;
35847;SDS011;22332;51.954;20.118;2023-02-28T11:29:19;17.80;;;10.20;;
35847;SDS011;22332;51.954;20.118;2023-02-28T11:32:27;14.90;;;10.10;;
35847;SDS011;22332;51.954;20.118;2023-02-28T11:35:34;17.70;;;10.00;;
35847;SDS011;22332;51.954;20.118;2023-02-28T11:38:43;15.10;;;10.00;;
35847;SDS011;22332;51.954;20.118;2023-02-28T11:41:53;15.80;;;10.40;;
35847;SDS011;22332;51.954;20.118;2023-02-28T11:45:11;14.30;;;9.70;;
35847;SDS011;22332;51.954;20.118;2023-02-28T11:48:26;15.70;;;10.00;;
35847;SDS011;22332;51.954;20.118;2023-02-28T11:51:44;15.00;;;9.30;;
35847;SDS011;22332;51.954;20.118;2023-02-28T11:55:06;14.00;;;9.40;;
35847;SDS011;22332;51.954;20.118;2023-02-28T11:58:25;14.00;;;8.90;;
35847;SDS011;22332;51.954;20.118;2023-02-28T12:01:40;14.70;;;9.00;;
35847;SDS011;22332;51.954;20.118;2023-02-28T12:05:08;15.10;;;9.30;;
35847;SDS011;22332;51.954;20.118;2023-02-28T12:08:27;15.00;;;9.60;;
35847;SDS011;22332;51.954;20.118;2023-02-28T12:11:50;13.10;;;8.50;;
35847;SDS011;22332;51.954;20.118;2023-02-28T12:15:05;14.20;;;8.90;;
35847;SDS011;22332;51.954;20.118;2023-02-28T12:18:29;16.00;;;9.40;;
35847;SDS011;22332;51.954;20.118;2023-02-28T12:21:56;15.50;;;9.70;;
35847;SDS011;22332;51.954;20.118;2023-02-28T12:25:34;13.80;;;9.00;;
35847;SDS011;22332;51.954;20.118;2023-02-28T12:28:51;14.30;;;9.80;;
35847;SDS011;22332;51.954;20.118;2023-02-28T12:32:03;14.80;;;9.30;;
35847;SDS011;22332;51.954;20.118;2023-02-28T12:35:14;15.70;;;10.20;;
35847;SDS011;22332;51.954;20.118;2023-02-28T12:38:25;18.00;;;10.80;;
35847;SDS011;22332;51.954;20.118;2023-02-28T12:41:35;16.50;;;10.10;;
35847;SDS011;22332;51.954;20.118;2023-02-28T12:44:44;21.50;;;14.60;;
35847;SDS011;22332;51.954;20.118;2023-02-28T12:47:55;20.10;;;12.30;;
35847;SDS011;22332;51.954;20.118;2023-02-28T12:51:05;17.80;;;11.00;;
35847;SDS011;22332;51.954;20.118;2023-02-28T12:54:19;16.50;;;11.00;;
35847;SDS011;22332;51.954;20.118;2023-02-28T12:57:31;16.80;;;10.80;;
35847;SDS011;22332;51.954;20.118;2023-02-28T13:00:43;17.70;;;11.40;;
35847;SDS011;22332;51.954;20.118;2023-02-28T13:04:14;17.20;;;10.70;;
35847;SDS011;22332;51.954;20.118;2023-02-28T13:07:46;14.80;;;9.80;;
35847;SDS011;22332;51.954;20.118;2023-02-28T13:11:01;16.90;;;10.40;;
35847;SDS011;22332;51.954;20.118;2023-02-28T13:14:15;16.40;;;10.30;;
35847;SDS011;22332;51.954;20.118;2023-02-28T13:17:25;18.00;;;10.60;;
35847;SDS011;22332;51.954;20.118;2023-02-28T13:20:33;16.70;;;10.50;;
35847;SDS011;22332;51.954;20.118;2023-02-28T13:24:00;16.40;;;10.50;;
35847;SDS011;22332;51.954;20.118;2023-02-28T13:31:02;17.10;;;10.70;;
35847;SDS011;22332;51.954;20.118;2023-02-28T13:34:15;18.90;;;10.10;;
35847;SDS011;22332;51.954;20.118;2023-02-28T13:37:34;28.00;;;18.70;;
35847;SDS011;22332;51.954;20.118;2023-02-28T13:40:45;16.70;;;11.10;;
35847;SDS011;22332;51.954;20.118;2023-02-28T13:44:01;17.70;;;11.30;;
35847;SDS011;22332;51.954;20.118;2023-02-28T13:50:36;26.30;;;15.90;;
35847;SDS011;22332;51.954;20.118;2023-02-28T13:53:53;18.40;;;12.50;;
35847;SDS011;22332;51.954;20.118;2023-02-28T13:57:10;34.20;;;21.10;;
35847;SDS011;22332;51.954;20.118;2023-02-28T14:00:28;24.50;;;14.40;;
35847;SDS011;22332;51.954;20.118;2023-02-28T14:07:26;21.20;;;12.20;;
35847;SDS011;22332;51.954;20.118;2023-02-28T14:10:37;23.00;;;13.70;;
35847;SDS011;22332;51.954;20.118;2023-02-28T14:13:46;18.40;;;12.10;;
35847;SDS011;22332;51.954;20.118;2023-02-28T14:16:52;17.60;;;12.00;;
35847;SDS011;22332;51.954;20.118;2023-02-28T14:19:58;19.00;;;12.20;;
35847;SDS011;22332;51.954;20.118;2023-02-28T14:23:06;19.80;;;12.70;;
35847;SDS011;22332;51.954;20.118;2023-02-28T14:26:23;20.90;;;12.70;;
35847;SDS011;22332;51.954;20.118;2023-02-28T14:29:43;20.20;;;12.80;;
35847;SDS011;22332;51.954;20.118;2023-02-28T14:33:18;36.80;;;18.40;;
35847;SDS011;22332;51.954;20.118;2023-02-28T14:36:31;24.60;;;14.40;;
35847;SDS011;22332;51.954;20.118;2023-02-28T14:39:41;24.20;;;13.60;;
35847;SDS011;22332;51.954;20.118;2023-02-28T14:42:54;28.50;;;16.80;;
35847;SDS011;22332;51.954;20.118;2023-02-28T14:46:02;41.90;;;24.40;;
35847;SDS011;22332;51.954;20.118;2023-02-28T14:49:12;27.50;;;17.00;;
35847;SDS011;22332;51.954;20.118;2023-02-28T14:52:22;28.80;;;17.10;;
35847;SDS011;22332;51.954;20.118;2023-02-28T14:55:32;28.70;;;16.40;;
35847;SDS011;22332;51.954;20.118;2023-02-28T14:58:39;26.00;;;15.80;;
35847;SDS011;22332;51.954;20.118;2023-02-28T15:05:26;24.60;;;14.30;;
35847;SDS011;22332;51.954;20.118;2023-02-28T15:08:33;27.00;;;15.40;;
35847;SDS011;22332;51.954;20.118;2023-02-28T15:11:39;32.00;;;18.30;;
35847;SDS011;22332;51.954;20.118;2023-02-28T15:14:45;27.90;;;16.40;;
35847;SDS011;22332;51.954;20.118;2023-02-28T15:17:52;29.20;;;16.40;;
35847;SDS011;22332;51.954;20.118;2023-02-28T15:21:02;26.40;;;15.90;;
35847;SDS011;22332;51.954;20.118;2023-02-28T15:24:10;25.40;;;15.10;;
35847;SDS011;22332;51.954;20.118;2023-02-28T15:27:26;28.90;;;17.30;;
35847;SDS011;22332;51.954;20.118;2023-02-28T15:30:35;36.50;;;19.90;;
35847;SDS011;22332;51.954;20.118;2023-02-28T15:33:47;30.30;;;17.70;;
35847;SDS011;22332;51.954;20.118;2023-02-28T15:36:58;42.80;;;24.00;;
35847;SDS011;22332;51.954;20.118;2023-02-28T15:40:10;37.40;;;20.60;;
35847;SDS011;22332;51.954;20.118;2023-02-28T15:43:19;66.10;;;33.00;;
35847;SDS011;22332;51.954;20.118;2023-02-28T15:46:30;56.90;;;31.30;;
35847;SDS011;22332;51.954;20.118;2023-02-28T15:49:39;38.40;;;21.70;;
35847;SDS011;22332;51.954;20.118;2023-02-28T15:52:55;81.00;;;39.50;;
35847;SDS011;22332;51.954;20.118;2023-02-28T15:56:30;82.70;;;38.70;;
35847;SDS011;22332;51.954;20.118;2023-02-28T15:59:37;70.60;;;33.90;;
35847;SDS011;22332;51.954;20.118;2023-02-28T16:02:43;58.20;;;27.90;;
35847;SDS011;22332;51.954;20.118;2023-02-28T16:05:50;51.60;;;25.50;;
35847;SDS011;22332;51.954;20.118;2023-02-28T16:09:25;41.60;;;22.20;;
35847;SDS011;22332;51.954;20.118;2023-02-28T16:12:35;47.10;;;22.20;;
35847;SDS011;22332;51.954;20.118;2023-02-28T16:15:42;64.70;;;27.90;;
35847;SDS011;22332;51.954;20.118;2023-02-28T16:18:49;53.60;;;26.60;;
35847;SDS011;22332;51.954;20.118;2023-02-28T16:21:55;61.50;;;27.40;;
35847;SDS011;22332;51.954;20.118;2023-02-28T16:25:00;53.70;;;24.00;;
35847;SDS011;22332;51.954;20.118;2023-02-28T16:28:08;41.10;;;20.10;;
35847;SDS011;22332;51.954;20.118;2023-02-28T16:31:23;42.10;;;21.50;;
35847;SDS011;22332;51.954;20.118;2023-02-28T16:34:29;31.80;;;17.20;;
35847;SDS011;22332;51.954;20.118;2023-02-28T16:37:34;67.00;;;27.90;;
35847;SDS011;22332;51.954;20.118;2023-02-28T16:40:40;76.20;;;28.10;;
35847;SDS011;22332;51.954;20.118;2023-02-28T16:43:47;47.10;;;22.90;;
35847;SDS011;22332;51.954;20.118;2023-02-28T16:46:55;39.50;;;20.50;;
35847;SDS011;22332;51.954;20.118;2023-02-28T16:50:08;65.60;;;34.20;;
35847;SDS011;22332;51.954;20.118;2023-02-28T16:53:18;62.60;;;33.40;;
35847;SDS011;22332;51.954;20.118;2023-02-28T16:56:23;49.70;;;25.10;;
35847;SDS011;22332;51.954;20.118;2023-02-28T16:59:30;32.60;;;17.70;;
35847;SDS011;22332;51.954;20.118;2023-02-28T17:02:36;29.10;;;16.00;;
35847;SDS011;22332;51.954;20.118;2023-02-28T17:05:42;30.80;;;16.40;;
35847;SDS011;22332;51.954;20.118;2023-02-28T17:08:48;28.40;;;15.30;;
35847;SDS011;22332;51.954;20.118;2023-02-28T17:11:55;28.70;;;14.50;;
35847;SDS011;22332;51.954;20.118;2023-02-28T17:15:02;28.90;;;15.70;;
35847;SDS011;22332;51.954;20.118;2023-02-28T17:18:09;30.60;;;14.90;;
35847;SDS011;22332;51.954;20.118;2023-02-28T17:24:25;26.70;;;13.00;;
35847;SDS011;22332;51.954;20.118;2023-02-28T17:27:31;25.90;;;13.70;;
35847;SDS011;22332;51.954;20.118;2023-02-28T17:30:36;25.50;;;13.80;;
35847;SDS011;22332;51.954;20.118;2023-02-28T17:33:49;27.80;;;15.30;;
35847;SDS011;22332;51.954;20.118;2023-02-28T17:36:55;28.80;;;15.70;;
35847;SDS011;22332;51.954;20.118;2023-02-28T17:40:01;26.40;;;14.70;;
35847;SDS011;22332;51.954;20.118;2023-02-28T17:43:07;26.80;;;14.80;;
35847;SDS011;22332;51.954;20.118;2023-02-28T17:46:15;51.00;;;20.50;;
35847;SDS011;22332;51.954;20.118;2023-02-28T17:49:23;54.20;;;21.20;;
35847;SDS011;22332;51.954;20.118;2023-02-28T17:52:29;52.10;;;22.50;;
35847;SDS011;22332;51.954;20.118;2023-02-28T17:55:39;46.20;;;21.40;;
35847;SDS011;22332;51.954;20.118;2023-02-28T17:58:44;54.70;;;22.60;;
35847;SDS011;22332;51.954;20.118;2023-02-28T18:01:50;50.00;;;24.00;;
35847;SDS011;22332;51.954;20.118;2023-02-28T18:04:56;63.20;;;29.20;;
35847;SDS011;22332;51.954;20.118;2023-02-28T18:08:01;57.20;;;25.50;;
35847;SDS011;22332;51.954;20.118;2023-02-28T18:11:07;53.30;;;25.80;;
35847;SDS011;22332;51.954;20.118;2023-02-28T18:14:20;72.70;;;29.80;;
35847;SDS011;22332;51.954;20.118;2023-02-28T18:17:28;76.60;;;28.50;;
35847;SDS011;22332;51.954;20.118;2023-02-28T18:20:33;84.40;;;31.00;;
35847;SDS011;22332;51.954;20.118;2023-02-28T18:23:39;84.40;;;30.30;;
35847;SDS011;22332;51.954;20.118;2023-02-28T18:26:49;67.60;;;27.50;;
35847;SDS011;22332;51.954;20.118;2023-02-28T18:29:55;65.40;;;27.60;;
35847;SDS011;22332;51.954;20.118;2023-02-28T18:33:01;47.50;;;22.60;;